K6G0 weather

CLOSED Athelone Williams Memorial Airport
Davison, Michigan, United States

Public forecast

Using degrees Fahrenheit for public forecast. Weather courtesy of forecast.io.

Closest aviation weather report (METAR) to Athelone Williams Memorial Airport

Closest report is Bishop International Airport, 10.1 nm (18.8 km) WSW. Retrieved 2019/10/23 06:53 UTC (38 minutes ago):

KFNT 230653Z AUTO 22008KT 10SM CLR 08/03 A2974 RMK AO2 SLP074 T00780028

Closest aviation forecast (TAF) to Athelone Williams Memorial Airport

Closest forecast is Bishop International Airport, 10.1 nm (18.8 km) WSW. Retrieved 2019/10/23 06:22 UTC (1 hour ago):

TAF KFNT 230520Z 2306/2406 22013KT P6SM VCSH SCT025 OVC045 FM231000 22013KT P6SM BKN045 FM231400 25015G25KT P6SM SCT045 FM232200 20013KT P6SM BKN045